createdAt,value
2023-04-17T00:01:39.567Z,57.35
2023-04-17T00:04:11.002Z,62.97
2023-04-17T00:06:38.482Z,59.42
2023-04-17T00:09:06.048Z,65.32
2023-04-17T00:11:32.882Z,63.80
2023-04-17T00:13:59.629Z,61.08
2023-04-17T00:16:27.420Z,68.25
2023-04-17T00:18:54.947Z,72.80
2023-04-17T00:21:21.887Z,71.63
2023-04-17T00:23:48.853Z,65.95
2023-04-17T00:26:16.450Z,75.47
2023-04-17T00:28:43.229Z,65.60
2023-04-17T00:31:09.958Z,67.20
2023-04-17T00:33:36.649Z,63.80
2023-04-17T00:36:03.451Z,65.15
2023-04-17T00:38:30.125Z,68.00
2023-04-17T00:40:56.774Z,67.22
2023-04-17T00:43:23.571Z,74.57
2023-04-17T00:45:50.609Z,71.68
2023-04-17T00:48:18.397Z,68.70
2023-04-17T00:50:45.688Z,69.93
2023-04-17T00:53:13.960Z,68.00
2023-04-17T00:55:42.131Z,62.42
2023-04-17T00:58:09.484Z,73.60
2023-04-17T01:00:36.242Z,73.35
2023-04-17T01:03:03.301Z,69.85
2023-04-17T01:05:30.114Z,65.57
2023-04-17T01:07:58.505Z,61.58
2023-04-17T01:10:25.262Z,70.32
2023-04-17T01:13:02.675Z,68.43
2023-04-17T01:15:29.574Z,68.80
2023-04-17T01:17:56.445Z,60.45
2023-04-17T01:20:23.312Z,67.55
2023-04-17T01:22:50.269Z,62.00
2023-04-17T01:25:17.017Z,62.42
2023-04-17T01:27:43.727Z,68.22
2023-04-17T01:30:11.119Z,64.60
2023-04-17T01:32:37.869Z,65.30
2023-04-17T01:35:04.830Z,64.00
2023-04-17T01:37:31.585Z,61.70
2023-04-17T01:40:01.434Z,63.28
2023-04-17T01:42:28.235Z,53.70
2023-04-17T01:44:54.899Z,61.03
2023-04-17T01:47:21.645Z,56.90
2023-04-17T01:49:48.419Z,58.88
2023-04-17T01:52:15.106Z,56.85
2023-04-17T01:54:41.804Z,59.28
2023-04-17T01:57:08.546Z,62.53
2023-04-17T01:59:35.393Z,72.85
2023-04-17T02:02:02.182Z,67.18
2023-04-17T02:04:29.029Z,60.78
2023-04-17T02:06:55.762Z,49.00
2023-04-17T02:09:22.500Z,49.78
2023-04-17T02:11:49.157Z,58.55
2023-04-17T02:14:17.803Z,55.78
2023-04-17T02:16:45.840Z,56.75
2023-04-17T02:19:13.610Z,59.63
2023-04-17T02:21:40.696Z,61.92
2023-04-17T02:24:07.424Z,55.65
2023-04-17T02:26:34.341Z,60.67
2023-04-17T02:29:01.077Z,57.40
2023-04-17T02:31:27.791Z,61.30
2023-04-17T02:33:54.570Z,53.10
2023-04-17T02:36:21.753Z,61.20
2023-04-17T02:38:48.485Z,53.13
2023-04-17T02:41:15.513Z,54.42
2023-04-17T02:43:42.299Z,57.28
2023-04-17T02:46:09.033Z,59.10
2023-04-17T02:48:35.800Z,54.72
2023-04-17T02:51:02.553Z,55.08
2023-04-17T02:53:29.265Z,53.47
2023-04-17T02:55:55.943Z,49.80
2023-04-17T02:58:22.651Z,53.05
2023-04-17T03:00:49.405Z,51.70
2023-04-17T03:03:16.232Z,56.15
2023-04-17T03:05:43.218Z,60.10
2023-04-17T03:08:09.965Z,59.60
2023-04-17T03:10:36.709Z,56.35
2023-04-17T03:13:04.488Z,57.20
2023-04-17T03:15:31.240Z,49.40
2023-04-17T03:17:58.070Z,46.67
2023-04-17T03:20:24.900Z,45.45
2023-04-17T03:22:51.630Z,47.97
2023-04-17T03:25:18.400Z,43.78
2023-04-17T03:27:45.114Z,45.20
2023-04-17T03:30:12.146Z,43.25
2023-04-17T03:32:38.866Z,47.30
2023-04-17T03:35:06.446Z,44.90
2023-04-17T03:37:33.214Z,50.45
2023-04-17T03:39:59.932Z,50.90
2023-04-17T03:42:27.217Z,51.40
2023-04-17T03:44:53.953Z,51.38
2023-04-17T03:47:20.786Z,48.50
2023-04-17T03:49:47.455Z,49.90
2023-04-17T03:52:14.134Z,50.30
2023-04-17T03:54:40.952Z,50.38
2023-04-17T03:57:07.687Z,52.88
2023-04-17T03:59:34.418Z,57.78
2023-04-17T04:02:01.243Z,54.00
2023-04-17T04:04:28.227Z,56.42
2023-04-17T04:06:57.485Z,51.22
2023-04-17T04:09:25.763Z,53.05
2023-04-17T04:11:52.504Z,55.55
2023-04-17T04:14:19.342Z,51.10
2023-04-17T04:16:46.185Z,55.42
2023-04-17T04:19:13.215Z,56.08
2023-04-17T04:21:42.305Z,54.45
2023-04-17T04:24:10.094Z,58.85
2023-04-17T04:26:37.910Z,58.90
2023-04-17T04:29:04.734Z,49.15
2023-04-17T04:31:32.042Z,52.40
2023-04-17T04:33:59.629Z,49.47
2023-04-17T04:36:30.226Z,51.05
2023-04-17T04:39:00.829Z,50.63
2023-04-17T04:41:29.884Z,43.30
2023-04-17T04:43:56.745Z,48.97
2023-04-17T04:46:23.487Z,48.92
2023-04-17T04:48:50.317Z,53.53
2023-04-17T04:51:19.109Z,51.08
2023-04-17T04:53:46.115Z,52.10
2023-04-17T04:56:12.943Z,54.50
2023-04-17T04:58:39.692Z,55.08
2023-04-17T05:01:06.873Z,47.97
2023-04-17T05:03:34.003Z,52.17
2023-04-17T05:06:00.885Z,54.00
2023-04-17T05:08:27.882Z,54.67
2023-04-17T05:10:54.675Z,52.83
2023-04-17T05:13:21.447Z,51.47
2023-04-17T05:15:48.172Z,53.15
2023-04-17T05:18:14.940Z,55.42
2023-04-17T05:20:41.700Z,57.90
2023-04-17T05:23:08.534Z,56.22
2023-04-17T05:25:35.405Z,57.78
2023-04-17T05:28:02.099Z,57.50
2023-04-17T05:30:28.846Z,54.88
2023-04-17T05:32:55.944Z,57.83
2023-04-17T05:35:22.791Z,55.95
2023-04-17T05:37:49.580Z,52.45
2023-04-17T05:40:16.405Z,56.58
2023-04-17T05:42:43.167Z,54.72
2023-04-17T05:45:13.574Z,55.20
2023-04-17T05:47:41.073Z,58.45
2023-04-17T05:50:08.654Z,60.25
2023-04-17T05:52:38.048Z,59.53
2023-04-17T05:55:06.835Z,57.25
2023-04-17T05:57:33.551Z,58.03
2023-04-17T06:00:00.255Z,50.42
2023-04-17T06:02:27.196Z,49.13
2023-04-17T06:04:54.251Z,52.08
2023-04-17T06:07:21.593Z,50.45
2023-04-17T06:09:48.343Z,56.45
2023-04-17T06:12:16.304Z,48.60
2023-04-17T06:14:43.798Z,47.85
2023-04-17T06:17:12.296Z,51.33
2023-04-17T06:19:39.673Z,50.03
2023-04-17T06:22:06.524Z,52.00
2023-04-17T06:24:33.585Z,51.53
2023-04-17T06:27:00.363Z,50.00
2023-04-17T06:29:27.094Z,56.08
2023-04-17T06:31:53.804Z,53.75
2023-04-17T06:34:20.919Z,53.42
2023-04-17T06:36:48.224Z,51.53
2023-04-17T06:39:15.006Z,47.08
2023-04-17T06:41:41.661Z,51.70
2023-04-17T06:44:08.729Z,53.50
2023-04-17T06:46:35.589Z,50.92
2023-04-17T06:49:02.771Z,50.22
2023-04-17T06:51:29.484Z,51.38
2023-04-17T06:53:56.210Z,51.65
2023-04-17T06:56:24.191Z,53.80
2023-04-17T06:58:51.499Z,50.03
2023-04-17T07:01:18.379Z,50.78
2023-04-17T07:03:46.684Z,46.60
2023-04-17T07:06:13.530Z,49.63
2023-04-17T07:08:40.265Z,54.15
2023-04-17T07:11:07.234Z,49.53
2023-04-17T07:13:33.984Z,48.67
2023-04-17T07:16:01.396Z,47.42
2023-04-17T07:18:30.944Z,49.70
2023-04-17T07:20:57.757Z,46.70
2023-04-17T07:23:24.678Z,46.35
2023-04-17T07:25:51.549Z,41.60
2023-04-17T07:28:18.515Z,46.28
2023-04-17T07:30:45.445Z,44.08
2023-04-17T07:33:12.271Z,43.80
2023-04-17T07:35:39.110Z,42.33
2023-04-17T07:38:05.998Z,48.17
2023-04-17T07:40:36.976Z,49.30
2023-04-17T07:43:04.062Z,47.95
2023-04-17T07:45:30.912Z,52.85
2023-04-17T07:47:57.731Z,49.33
2023-04-17T07:50:24.813Z,50.33
2023-04-17T07:52:51.633Z,48.85
2023-04-17T07:55:18.358Z,53.88
2023-04-17T07:57:46.823Z,51.92
2023-04-17T08:00:14.750Z,52.38
2023-04-17T08:02:42.483Z,47.30
2023-04-17T08:05:10.012Z,50.78
2023-04-17T08:07:37.449Z,51.70
2023-04-17T08:10:04.877Z,49.95
2023-04-17T08:12:31.657Z,49.28
2023-04-17T08:14:58.396Z,55.97
2023-04-17T08:17:26.004Z,56.53
2023-04-17T08:19:57.575Z,54.90
2023-04-17T08:22:25.542Z,55.20
2023-04-17T08:24:57.722Z,51.88
2023-04-17T08:27:28.149Z,58.22
2023-04-17T08:29:54.848Z,55.53
2023-04-17T08:32:21.798Z,48.95
2023-04-17T08:34:48.673Z,44.70
2023-04-17T08:37:15.470Z,47.08
2023-04-17T08:39:42.237Z,44.30
2023-04-17T08:42:15.773Z,45.47
2023-04-17T08:44:45.595Z,46.03
2023-04-17T08:47:13.619Z,46.55
2023-04-17T08:49:43.596Z,44.22
2023-04-17T08:52:11.320Z,45.33
2023-04-17T08:54:38.881Z,44.65
2023-04-17T08:57:06.279Z,46.97
2023-04-17T08:59:33.551Z,43.75
2023-04-17T09:02:05.205Z,42.38
2023-04-17T09:07:04.475Z,44.88
2023-04-17T09:10:00.816Z,44.88
2023-04-17T09:12:27.571Z,44.90
2023-04-17T09:14:54.373Z,45.60
2023-04-17T09:17:21.733Z,45.67
2023-04-17T09:20:09.295Z,43.38
2023-04-17T09:22:37.405Z,42.33
2023-04-17T09:25:05.275Z,38.72
2023-04-17T09:27:32.549Z,39.28
2023-04-17T09:30:01.071Z,41.17
2023-04-17T09:32:29.055Z,39.72
2023-04-17T09:34:58.540Z,40.90
2023-04-17T09:37:25.586Z,43.40
2023-04-17T09:40:00.109Z,39.30
2023-04-17T09:42:28.042Z,43.92
2023-04-17T09:44:55.141Z,39.08
2023-04-17T09:47:25.246Z,42.30
2023-04-17T09:49:52.942Z,41.53
2023-04-17T09:52:23.601Z,39.95
2023-04-17T09:54:53.769Z,42.38
2023-04-17T09:57:21.119Z,43.35
2023-04-17T09:59:49.088Z,40.83
2023-04-17T10:02:18.426Z,40.95
2023-04-17T10:04:46.773Z,42.30
2023-04-17T10:07:14.442Z,40.28
2023-04-17T10:09:42.112Z,37.33
2023-04-17T10:12:20.372Z,42.00
2023-04-17T10:14:51.853Z,40.33
2023-04-17T10:17:34.651Z,41.60
2023-04-17T10:20:17.530Z,37.60
2023-04-17T10:22:45.193Z,40.45
2023-04-17T10:25:12.604Z,36.45
2023-04-17T10:27:42.348Z,35.67
2023-04-17T10:30:12.864Z,38.42
2023-04-17T10:32:42.318Z,38.00
2023-04-17T10:35:18.070Z,34.78
2023-04-17T10:37:47.931Z,39.67
2023-04-17T10:40:30.037Z,37.05
2023-04-17T10:43:23.594Z,38.58
2023-04-17T10:45:55.279Z,35.80
2023-04-17T10:51:24.118Z,35.53
2023-04-17T10:53:57.963Z,35.75
2023-04-17T10:56:25.902Z,36.55
2023-04-17T10:59:03.503Z,38.03
2023-04-17T11:01:50.992Z,33.40
2023-04-17T11:04:25.388Z,33.88
2023-04-17T11:06:55.706Z,32.92
2023-04-17T11:09:28.186Z,33.10
2023-04-17T11:11:58.061Z,31.98
2023-04-17T11:14:24.760Z,29.35
2023-04-17T11:16:52.130Z,30.42
2023-04-17T11:19:24.221Z,30.77
2023-04-17T11:21:58.386Z,32.95
2023-04-17T11:24:30.348Z,31.00
2023-04-17T11:27:03.379Z,28.55
2023-04-17T11:29:30.366Z,34.45
2023-04-17T11:31:58.145Z,26.65
2023-04-17T11:34:26.732Z,28.17
2023-04-17T11:36:58.731Z,27.35
2023-04-17T11:39:28.687Z,27.25
2023-04-17T11:41:57.129Z,29.33
2023-04-17T11:44:24.764Z,29.73
2023-04-17T11:46:52.552Z,28.52
2023-04-17T11:49:28.527Z,26.88
2023-04-17T11:51:56.719Z,26.63
2023-04-17T11:54:27.554Z,26.52
2023-04-17T11:57:11.438Z,29.67
2023-04-17T11:59:42.150Z,28.27
2023-04-17T12:02:09.649Z,29.13
2023-04-17T12:04:37.907Z,27.55
2023-04-17T12:07:06.062Z,28.98
2023-04-17T12:09:34.244Z,30.58
2023-04-17T12:12:02.696Z,27.77
2023-04-17T12:14:29.618Z,25.40
2023-04-17T12:16:56.377Z,24.58
2023-04-17T12:19:25.484Z,23.55
2023-04-17T12:21:52.555Z,24.48
2023-04-17T12:24:20.740Z,26.48
2023-04-17T12:26:48.805Z,27.73
2023-04-17T12:29:16.561Z,26.08
2023-04-17T12:31:44.355Z,25.70
2023-04-17T12:34:11.414Z,24.75
2023-04-17T12:36:38.650Z,22.75
2023-04-17T12:39:05.412Z,23.83
2023-04-17T12:41:32.158Z,24.30
2023-04-17T12:44:01.784Z,26.08
2023-04-17T12:46:28.810Z,22.45
2023-04-17T12:48:58.588Z,22.38
2023-04-17T12:51:28.500Z,23.45
2023-04-17T12:53:56.247Z,25.88
2023-04-17T12:56:23.425Z,25.52
2023-04-17T12:58:50.169Z,25.30
2023-04-17T13:01:16.970Z,27.70
2023-04-17T13:03:44.021Z,26.23
2023-04-17T13:06:11.001Z,25.45
2023-04-17T13:08:37.699Z,22.45
2023-04-17T13:11:04.698Z,23.88
2023-04-17T13:13:31.507Z,24.85
2023-04-17T13:15:58.910Z,24.38
2023-04-17T13:18:26.348Z,23.60
2023-04-17T13:20:53.052Z,23.95
2023-04-17T13:23:19.729Z,27.77
2023-04-17T13:25:47.245Z,24.88
2023-04-17T13:28:13.965Z,22.63
2023-04-17T13:30:41.049Z,23.38
2023-04-17T13:33:08.019Z,23.33
2023-04-17T13:35:34.850Z,20.75
2023-04-17T13:38:03.229Z,24.50
2023-04-17T13:40:30.618Z,23.95
2023-04-17T13:42:57.389Z,24.73
2023-04-17T13:45:24.448Z,23.50
2023-04-17T13:47:51.400Z,22.48
2023-04-17T13:50:18.195Z,22.48
2023-04-17T13:52:44.935Z,21.52
2023-04-17T13:55:14.645Z,20.65
2023-04-17T13:57:41.536Z,23.55
2023-04-17T14:00:08.960Z,23.42
2023-04-17T14:02:35.835Z,23.67
2023-04-17T14:05:02.794Z,29.13
2023-04-17T14:07:30.116Z,22.75
2023-04-17T14:09:56.897Z,22.27
2023-04-17T14:12:23.644Z,25.00
2023-04-17T14:14:50.563Z,25.38
2023-04-17T14:17:18.052Z,38.28
2023-04-17T14:19:44.802Z,27.23
2023-04-17T14:22:11.542Z,85.50
2023-04-17T14:24:38.277Z,78.18
2023-04-17T14:27:05.337Z,45.53
2023-04-17T14:29:32.029Z,50.03
2023-04-17T14:31:58.936Z,37.03
2023-04-17T14:34:25.930Z,31.77
2023-04-17T14:36:53.146Z,45.17
2023-04-17T14:39:19.949Z,26.13
2023-04-17T14:41:46.812Z,36.67
2023-04-17T14:44:13.786Z,50.05
2023-04-17T14:46:40.695Z,35.22
2023-04-17T14:49:07.857Z,26.55
2023-04-17T14:51:34.615Z,20.27
2023-04-17T14:54:01.396Z,25.40
2023-04-17T14:56:28.216Z,36.38
2023-04-17T14:58:55.005Z,40.47
2023-04-17T15:01:21.763Z,23.98
2023-04-17T15:03:49.147Z,25.00
2023-04-17T15:06:16.923Z,22.85
2023-04-17T15:08:43.730Z,47.22
2023-04-17T15:11:10.793Z,30.77
2023-04-17T15:13:39.517Z,26.15
2023-04-17T15:16:06.683Z,31.17
2023-04-17T15:18:34.669Z,40.15
2023-04-17T15:21:01.529Z,35.70
2023-04-17T15:23:29.672Z,22.10
2023-04-17T15:25:57.859Z,23.92
2023-04-17T15:28:25.336Z,21.80
2023-04-17T15:30:52.093Z,26.17
2023-04-17T15:33:19.142Z,34.50
2023-04-17T15:35:45.993Z,17.98
2023-04-17T15:38:12.810Z,40.15
2023-04-17T15:40:39.470Z,43.22
2023-04-17T15:43:06.234Z,26.40
2023-04-17T15:45:32.903Z,18.48
2023-04-17T15:48:00.979Z,21.60
2023-04-17T15:50:27.914Z,24.40
2023-04-17T15:52:54.647Z,29.55
2023-04-17T15:55:21.520Z,17.98
2023-04-17T15:57:48.278Z,18.17
2023-04-17T16:00:15.648Z,18.73
2023-04-17T16:02:42.743Z,19.48
2023-04-17T16:05:09.732Z,20.20
2023-04-17T16:07:36.517Z,22.42
2023-04-17T16:10:03.307Z,19.90
2023-04-17T16:12:29.986Z,21.20
2023-04-17T16:14:56.698Z,18.02
2023-04-17T16:17:23.428Z,19.70
2023-04-17T16:19:50.847Z,23.90
2023-04-17T16:22:19.180Z,21.63
2023-04-17T16:24:45.885Z,22.88
2023-04-17T16:27:12.706Z,24.02
2023-04-17T16:29:39.437Z,23.70
2023-04-17T16:32:06.177Z,28.40
2023-04-17T16:34:33.333Z,21.17
2023-04-17T16:37:00.242Z,21.45
2023-04-17T16:39:26.958Z,20.60
2023-04-17T16:41:53.734Z,20.38
2023-04-17T16:44:20.489Z,19.98
2023-04-17T16:47:05.598Z,20.38
2023-04-17T16:49:36.553Z,22.13
2023-04-17T16:52:03.331Z,24.33
2023-04-17T16:54:30.026Z,26.05
2023-04-17T16:56:57.185Z,27.40
2023-04-17T16:59:24.049Z,27.90
2023-04-17T17:01:50.793Z,29.30
2023-04-17T17:04:17.589Z,28.45
2023-04-17T17:06:44.334Z,26.75
2023-04-17T17:09:11.253Z,27.13
2023-04-17T17:11:38.172Z,28.27
2023-04-17T17:14:04.994Z,28.25
2023-04-17T17:16:31.733Z,28.13
2023-04-17T17:19:00.142Z,28.58
2023-04-17T17:21:28.059Z,28.27
2023-04-17T17:23:54.827Z,30.48
2023-04-17T17:26:21.556Z,28.98
2023-04-17T17:28:51.246Z,24.65
2023-04-17T17:31:18.363Z,26.95
2023-04-17T17:33:49.947Z,25.60
2023-04-17T17:36:17.253Z,29.95
2023-04-17T17:38:44.539Z,32.38
2023-04-17T17:41:11.521Z,32.83
2023-04-17T17:43:38.261Z,34.42
2023-04-17T17:46:05.284Z,31.15
2023-04-17T17:48:33.726Z,31.38
2023-04-17T17:51:00.437Z,32.78
2023-04-17T17:53:27.324Z,32.60
2023-04-17T17:55:55.778Z,35.85
2023-04-17T17:58:22.830Z,34.05
2023-04-17T18:00:50.384Z,37.15
2023-04-17T18:03:18.239Z,35.72
2023-04-17T18:05:46.561Z,35.20
2023-04-17T18:08:14.476Z,36.28
2023-04-17T18:10:41.170Z,40.08
2023-04-17T18:13:08.252Z,37.38
2023-04-17T18:15:36.487Z,39.88
2023-04-17T18:18:03.501Z,37.70
2023-04-17T18:20:30.212Z,37.92
2023-04-17T18:22:57.656Z,37.88
2023-04-17T18:25:24.532Z,41.13
2023-04-17T18:27:51.290Z,40.70
2023-04-17T18:30:17.998Z,39.55
2023-04-17T18:32:44.793Z,36.47
2023-04-17T18:35:11.643Z,37.55
2023-04-17T18:37:39.568Z,36.75
2023-04-17T18:40:07.920Z,36.92
2023-04-17T18:42:34.683Z,41.03
2023-04-17T18:45:01.436Z,39.42
2023-04-17T18:47:28.340Z,37.75
2023-04-17T18:49:55.071Z,41.92
2023-04-17T18:52:21.945Z,38.33
2023-04-17T18:54:48.794Z,36.45
2023-04-17T18:57:15.555Z,36.92
2023-04-17T18:59:43.267Z,40.53
2023-04-17T19:02:10.289Z,39.70
2023-04-17T19:04:37.102Z,41.60
2023-04-17T19:07:04.015Z,38.70
2023-04-17T19:09:30.745Z,40.83
2023-04-17T19:11:58.455Z,41.72
2023-04-17T19:14:25.291Z,41.85
2023-04-17T19:16:52.114Z,41.67
2023-04-17T19:19:18.935Z,40.40
2023-04-17T19:21:45.610Z,42.22
2023-04-17T19:24:12.360Z,40.03
2023-04-17T19:26:39.119Z,41.42
2023-04-17T19:29:05.966Z,45.35
2023-04-17T19:31:33.427Z,43.28
2023-04-17T19:34:01.011Z,44.13
2023-04-17T19:36:28.188Z,47.20
2023-04-17T19:38:59.056Z,48.70
2023-04-17T19:41:26.362Z,50.97
2023-04-17T19:43:54.154Z,49.17
2023-04-17T19:46:22.339Z,46.67
2023-04-17T19:48:49.585Z,47.55
2023-04-17T19:51:16.849Z,45.13
2023-04-17T19:53:45.340Z,46.45
2023-04-17T19:56:12.123Z,45.97
2023-04-17T19:58:40.207Z,47.20
2023-04-17T20:01:06.970Z,46.45
2023-04-17T20:03:34.229Z,48.22
2023-04-17T20:06:03.492Z,47.28
2023-04-17T20:08:30.559Z,44.63
2023-04-17T20:10:57.320Z,47.83
2023-04-17T20:13:24.047Z,47.22
2023-04-17T20:15:50.760Z,48.92
2023-04-17T20:18:17.676Z,49.45
2023-04-17T20:20:44.539Z,46.40
2023-04-17T20:23:11.426Z,46.85
2023-04-17T20:25:38.310Z,47.53
2023-04-17T20:28:05.313Z,45.78
2023-04-17T20:30:32.300Z,46.88
2023-04-17T20:33:00.325Z,43.78
2023-04-17T20:35:27.208Z,44.75
2023-04-17T20:37:53.904Z,43.42
2023-04-17T20:40:20.663Z,44.22
2023-04-17T20:42:47.594Z,47.00
2023-04-17T20:45:14.890Z,46.45
2023-04-17T20:50:15.178Z,43.75
2023-04-17T20:52:41.972Z,43.47
2023-04-17T20:55:09.130Z,39.85
2023-04-17T20:57:36.000Z,40.55
2023-04-17T21:00:03.431Z,41.63
2023-04-17T21:02:31.870Z,42.15
2023-04-17T21:05:01.128Z,42.23
2023-04-17T21:07:27.845Z,40.97
2023-04-17T21:09:54.607Z,45.30
2023-04-17T21:12:21.324Z,38.63
2023-04-17T21:14:47.971Z,37.95
2023-04-17T21:17:14.706Z,37.17
2023-04-17T21:19:41.603Z,34.72
2023-04-17T21:22:09.063Z,35.22
2023-04-17T21:24:36.627Z,31.95
2023-04-17T21:27:03.965Z,34.97
2023-04-17T21:29:30.730Z,32.13
2023-04-17T21:31:57.631Z,31.10
2023-04-17T21:34:25.149Z,32.50
2023-04-17T21:36:54.183Z,33.40
2023-04-17T21:39:21.954Z,34.08
2023-04-17T21:41:48.878Z,36.10
2023-04-17T21:44:15.906Z,32.67
2023-04-17T21:46:46.207Z,31.30
2023-04-17T21:49:13.080Z,31.85
2023-04-17T21:51:39.862Z,30.73
2023-04-17T21:54:07.795Z,33.17
2023-04-17T21:56:34.535Z,28.88
2023-04-17T21:59:01.435Z,32.13
2023-04-17T22:01:28.348Z,32.25
2023-04-17T22:03:55.214Z,30.48
2023-04-17T22:06:22.187Z,30.83
2023-04-17T22:08:49.038Z,28.88
2023-04-17T22:11:15.803Z,31.40
2023-04-17T22:13:42.815Z,29.55
2023-04-17T22:16:09.615Z,28.33
2023-04-17T22:18:36.414Z,29.85
2023-04-17T22:21:03.599Z,27.45
2023-04-17T22:23:30.507Z,31.38
2023-04-17T22:25:57.223Z,31.02
2023-04-17T22:28:23.944Z,33.67
2023-04-17T22:30:52.033Z,31.20
2023-04-17T22:33:18.838Z,28.27
2023-04-17T22:35:45.612Z,28.58
2023-04-17T22:38:12.394Z,31.02
2023-04-17T22:40:40.196Z,30.13
2023-04-17T22:43:06.947Z,31.38
2023-04-17T22:45:34.086Z,30.65
2023-04-17T22:48:01.086Z,33.35
2023-04-17T22:50:30.442Z,30.95
2023-04-17T22:52:57.413Z,32.75
2023-04-17T22:55:24.156Z,28.83
2023-04-17T22:57:50.933Z,29.73
2023-04-17T23:00:19.994Z,30.27
2023-04-17T23:02:47.361Z,34.67
2023-04-17T23:05:14.410Z,33.88
2023-04-17T23:07:41.231Z,29.15
2023-04-17T23:10:08.313Z,30.73
2023-04-17T23:12:35.026Z,33.85
2023-04-17T23:15:01.893Z,30.58
2023-04-17T23:17:28.650Z,32.95
2023-04-17T23:19:55.673Z,31.88
2023-04-17T23:22:22.496Z,33.83
2023-04-17T23:24:49.298Z,31.83
2023-04-17T23:27:15.979Z,34.10
2023-04-17T23:29:42.709Z,35.78
2023-04-17T23:32:09.614Z,38.72
2023-04-17T23:34:37.520Z,34.80
2023-04-17T23:37:04.314Z,35.67
2023-04-17T23:39:31.068Z,38.08
2023-04-17T23:41:58.981Z,37.33
2023-04-17T23:44:25.760Z,38.10
2023-04-17T23:46:52.588Z,37.33
2023-04-17T23:49:19.326Z,34.97
2023-04-17T23:51:46.032Z,34.20
2023-04-17T23:54:12.997Z,37.03
2023-04-17T23:56:40.028Z,39.38
2023-04-17T23:59:06.824Z,38.92
